地図

経路データ

SID SEASON NUMBER BASIN SUBBASIN NAME ISO_TIME NATURE LAT LON WMO_WIND WMO_PRES WMO_AGENCY TRACK_TYPE DIST2LAND LANDFALL IFLAG USA_AGENCY USA_ATCF_ID USA_LAT USA_LON USA_RECORD USA_STATUS USA_WIND USA_PRES USA_SSHS USA_R34_NE USA_R34_SE USA_R34_SW USA_R34_NW USA_R50_NE USA_R50_SE USA_R50_SW USA_R50_NW USA_R64_NE USA_R64_SE USA_R64_SW USA_R64_NW USA_POCI USA_ROCI USA_RMW USA_EYE TOKYO_LAT TOKYO_LON TOKYO_GRADE TOKYO_WIND TOKYO_PRES TOKYO_R50_DIR TOKYO_R50_LONG TOKYO_R50_SHORT TOKYO_R30_DIR TOKYO_R30_LONG TOKYO_R30_SHORT TOKYO_LAND CMA_LAT CMA_LON CMA_CAT CMA_WIND CMA_PRES HKO_LAT HKO_LON HKO_CAT HKO_WIND HKO_PRES NEWDELHI_LAT NEWDELHI_LON NEWDELHI_GRADE NEWDELHI_WIND NEWDELHI_PRES NEWDELHI_CI NEWDELHI_DP NEWDELHI_POCI REUNION_LAT REUNION_LON REUNION_TYPE REUNION_WIND REUNION_PRES REUNION_TNUM REUNION_CI REUNION_RMW REUNION_R34_NE REUNION_R34_SE REUNION_R34_SW REUNION_R34_NW REUNION_R50_NE REUNION_R50_SE REUNION_R50_SW REUNION_R50_NW REUNION_R64_NE REUNION_R64_SE REUNION_R64_SW REUNION_R64_NW BOM_LAT BOM_LON BOM_TYPE BOM_WIND BOM_PRES BOM_TNUM BOM_CI BOM_RMW BOM_R34_NE BOM_R34_SE BOM_R34_SW BOM_R34_NW BOM_R50_NE BOM_R50_SE BOM_R50_SW BOM_R50_NW BOM_R64_NE BOM_R64_SE BOM_R64_SW BOM_R64_NW BOM_ROCI BOM_POCI BOM_EYE BOM_POS_METHOD BOM_PRES_METHOD NADI_LAT NADI_LON NADI_CAT NADI_WIND NADI_PRES WELLINGTON_LAT WELLINGTON_LON WELLINGTON_WIND WELLINGTON_PRES DS824_LAT DS824_LON DS824_STAGE DS824_WIND DS824_PRES TD9636_LAT TD9636_LON TD9636_STAGE TD9636_WIND TD9636_PRES TD9635_LAT TD9635_LON TD9635_WIND TD9635_PRES TD9635_ROCI NEUMANN_LAT NEUMANN_LON NEUMANN_CLASS NEUMANN_WIND NEUMANN_PRES MLC_LAT MLC_LON MLC_CLASS MLC_WIND MLC_PRES USA_GUST BOM_GUST BOM_GUST_PER REUNION_GUST REUNION_GUST_PER USA_SEAHGT USA_SEARAD_NE USA_SEARAD_SE USA_SEARAD_SW USA_SEARAD_NW STORM_SPEED STORM_DIR
1953016S14060 1953 5 SI MM NOT_NAMED 1953-01-16 06:00:00 NR -14.4000 60.4000 reunion main 699 694 _____O________ -1 -14.4000 60.4000 99 9.90000 1 283
1953016S14060 1953 5 SI MM NOT_NAMED 1953-01-16 09:00:00 NR -14.3848 60.3288 main 694 694 _____P________ -1 -14.3848 60.3288 99 1 281
1953016S14060 1953 5 SI MM NOT_NAMED 1953-01-16 12:00:00 NR -14.3758 60.2644 main 694 690 _____P________ -1 -14.3758 60.2644 99 1 273
1953016S14060 1953 5 SI MM NOT_NAMED 1953-01-16 15:00:00 NR -14.3792 60.2135 main 690 690 _____P________ -1 -14.3792 60.2135 99 1 251
1953016S14060 1953 5 SI MM NOT_NAMED 1953-01-16 18:00:00 NR -14.4012 60.1830 main 690 690 _____P________ -1 -14.4012 60.1830 99 1 209
1953016S14060 1953 5 SI MM NOT_NAMED 1953-01-16 21:00:00 NR -14.4481 60.1796 main 690 680 _____P________ -1 -14.4481 60.1796 99 1 176
1953016S14060 1953 5 SI MM NOT_NAMED 1953-01-17 00:00:00 NR -14.5261 60.2100 main 680 670 _____P________ -1 -14.5261 60.2100 99 2 153
1953016S14060 1953 5 SI MM NOT_NAMED 1953-01-17 03:00:00 NR -14.6413 60.2812 main 674 658 _____P________ -1 -14.6413 60.2812 99 3 146
1953016S14060 1953 5 SI MM NOT_NAMED 1953-01-17 06:00:00 NR -14.8000 60.4000 reunion main 658 643 _____O________ -1 -14.8000 60.4000 99 9.90000 5 143
1953016S14060 1953 5 SI MM NOT_NAMED 1953-01-17 09:00:00 NR -15.0070 60.5697 main 648 633 _____P________ -1 -15.0070 60.5697 99 6 142
1953016S14060 1953 5 SI MM NOT_NAMED 1953-01-17 12:00:00 NR -15.2617 60.7787 main 629 616 _____P________ -1 -15.2617 60.7787 99 7 143
1953016S14060 1953 5 SI MM NOT_NAMED 1953-01-17 15:00:00 NR -15.5625 61.0118 main 612 598 _____P________ -1 -15.5625 61.0118 99 8 145
1953016S14060 1953 5 SI MM NOT_NAMED 1953-01-17 18:00:00 NR -15.9076 61.2537 main 604 584 _____P________ -1 -15.9076 61.2537 99 9 148
1953016S14060 1953 5 SI MM NOT_NAMED 1953-01-17 21:00:00 NR -16.2954 61.4890 main 584 568 _____P________ -1 -16.2954 61.4890 99 9 152
1953016S14060 1953 5 SI MM NOT_NAMED 1953-01-18 00:00:00 NR -16.7243 61.7023 main 568 547 _____P________ -1 -16.7243 61.7023 99 10 157
1953016S14060 1953 5 SI MM NOT_NAMED 1953-01-18 03:00:00 NR -17.1930 61.8779 main 548 526 _____P________ -1 -17.1930 61.8779 99 10 164
1953016S14060 1953 5 SI MM NOT_NAMED 1953-01-18 06:00:00 NR -17.7000 62.0000 reunion main 526 508 _____O________ -1 -17.7000 62.0000 99 9.90000 11 168
1953016S14060 1953 5 SI MM NOT_NAMED 1953-01-18 09:00:00 NR -18.2402 62.1122 main 508 490 _____P________ -1 -18.2402 62.1122 99 11 171
1953016S14060 1953 5 SI MM NOT_NAMED 1953-01-18 12:00:00 NR -18.8264 62.1863 main 490 471 _____P________ -1 -18.8264 62.1863 99 12 175
1953016S14060 1953 5 SI MM NOT_NAMED 1953-01-18 15:00:00 NR -19.4478 62.2113 main 471 459 _____P________ -1 -19.4478 62.2113 99 13 0
1953016S14060 1953 5 SI MM NOT_NAMED 1953-01-18 18:00:00 NR -20.0933 62.1761 main 459 448 _____P________ -1 -20.0933 62.1761 99 13 186
1953016S14060 1953 5 SI MM NOT_NAMED 1953-01-18 21:00:00 NR -20.7523 62.0692 main 451 437 _____P________ -1 -20.7523 62.0692 99 14 192
1953016S14060 1953 5 SI MM NOT_NAMED 1953-01-19 00:00:00 NR -21.4138 61.8789 main 443 436 _____P________ -1 -21.4138 61.8789 99 14 199
1953016S14060 1953 5 SI MM NOT_NAMED 1953-01-19 03:00:00 NR -22.0667 61.5932 main 441 432 _____P________ -1 -22.0667 61.5932 99 14 206
1953016S14060 1953 5 SI MM NOT_NAMED 1953-01-19 06:00:00 NR -22.7000 61.2000 reunion main 437 432 _____O________ -1 -22.7000 61.2000 99 9.90000 16 216
1953016S14060 1953 5 SI MM NOT_NAMED 1953-01-19 09:00:00 NR -23.3364 60.5859 main 432 432 _____P________ -1 -23.3364 60.5859 99 18 225
1953016S14060 1953 5 SI MM NOT_NAMED 1953-01-19 12:00:00 NR -23.9638 59.8416 main 446 446 _____P________ -1 -23.9638 59.8416 99 19 229
1953016S14060 1953 5 SI MM NOT_NAMED 1953-01-19 15:00:00 NR -24.5701 59.0058 main 477 474 _____P________ -1 -24.5701 59.0058 99 20 233
1953016S14060 1953 5 SI MM NOT_NAMED 1953-01-19 18:00:00 NR -25.1434 58.1186 main 485 485 _____P________ -1 -25.1434 58.1186 99 20 236
1953016S14060 1953 5 SI MM NOT_NAMED 1953-01-19 21:00:00 NR -25.6725 57.2215 main 507 504 _____P________ -1 -25.6725 57.2215 99 19 238
1953016S14060 1953 5 SI MM NOT_NAMED 1953-01-20 00:00:00 NR -26.1475 56.3569 main 531 531 _____P________ -1 -26.1475 56.3569 99 17 239
1953016S14060 1953 5 SI MM NOT_NAMED 1953-01-20 03:00:00 NR -26.5593 55.5685 main 581 581 _____P________ -1 -26.5593 55.5685 99 15 240
1953016S14060 1953 5 SI MM NOT_NAMED 1953-01-20 06:00:00 NR -26.9000 54.9000 reunion main 618 618 _____O________ -1 -26.9000 54.9000 99 9.90000 12 240
1953016S14060 1953 5 SI MM NOT_NAMED 1953-01-20 09:00:00 NR -27.1653 54.3852 main 659 659 _____P________ -1 -27.1653 54.3852 99 9 240
1953016S14060 1953 5 SI MM NOT_NAMED 1953-01-20 12:00:00 NR -27.3633 54.0153 main 689 689 _____P________ -1 -27.3633 54.0153 99 6 238
1953016S14060 1953 5 SI MM NOT_NAMED 1953-01-20 15:00:00 NR -27.5046 53.7704 main 705 705 _____P________ -1 -27.5046 53.7704 99 4 236
1953016S14060 1953 5 SI MM NOT_NAMED 1953-01-20 18:00:00 NR -27.5993 53.6301 main 709 709 _____P________ -1 -27.5993 53.6301 99 2 229
1953016S14060 1953 5 SI MM NOT_NAMED 1953-01-20 21:00:00 NR -27.6568 53.5739 main 713 713 _____P________ -1 -27.6568 53.5739 99 1 206
1953016S14060 1953 5 SI MM NOT_NAMED 1953-01-21 00:00:00 NR -27.6866 53.5808 main 713 713 _____P________ -1 -27.6866 53.5808 99 1 127
1953016S14060 1953 5 SI MM NOT_NAMED 1953-01-21 03:00:00 NR -27.6979 53.6298 main 713 713 _____P________ -1 -27.6979 53.6298 99 1 97
1953016S14060 1953 5 SI MM NOT_NAMED 1953-01-21 06:00:00 NR -27.7000 53.7000 reunion main 722 _____O________ -1 -27.7000 53.7000 99 9.90000 1 92

IBTrACS Databaseについて

本データベースは、米国NOAAが公開する1842年以降の世界の熱帯低気圧のベストトラックデータアーカイブInternational Best Track Archive for Climate Stewardship (IBTrACS)を、ウェブで閲覧しやすい形式に変換したものです。

最終更新日:2021-12-03